createdAt,value
2023-03-29T00:00:27.083Z,70.3599
2023-03-29T00:01:35.965Z,70.2421
2023-03-29T00:02:33.708Z,71.1614
2023-03-29T00:03:36.399Z,72.4752
2023-03-29T00:05:41.232Z,74.3108
2023-03-29T00:06:43.791Z,75.2317
2023-03-29T00:08:48.593Z,76.9185
2023-03-29T00:09:51.073Z,76.9744
2023-03-29T00:10:53.616Z,76.6683
2023-03-29T00:11:56.140Z,76.6276
2023-03-29T00:14:00.996Z,74.9992
2023-03-29T00:15:03.436Z,74.2459
2023-03-29T00:16:05.999Z,74.6879
2023-03-29T00:17:08.544Z,74.6059
2023-03-29T00:18:11.206Z,73.7714
2023-03-29T00:19:13.694Z,74.1387
2023-03-29T00:20:16.241Z,73.3670
2023-03-29T00:22:21.040Z,73.4152
2023-03-29T00:23:23.528Z,72.5291
2023-03-29T00:25:28.413Z,72.5152
2023-03-29T00:26:30.861Z,72.3533
2023-03-29T00:27:33.349Z,71.9317
2023-03-29T00:28:35.901Z,74.3490
2023-03-29T00:30:40.722Z,72.1141
2023-03-29T00:31:43.211Z,72.2907
2023-03-29T00:33:48.070Z,69.1412
2023-03-29T00:34:50.593Z,65.9157
2023-03-29T00:35:53.089Z,66.9861
2023-03-29T00:36:55.605Z,68.8151
2023-03-29T00:37:58.132Z,69.1365
2023-03-29T00:39:00.615Z,68.9174
2023-03-29T00:40:03.131Z,67.1242
2023-03-29T00:42:07.921Z,69.5411
2023-03-29T00:43:10.371Z,69.2925
2023-03-29T00:45:15.234Z,66.1842
2023-03-29T00:47:20.166Z,66.2533
2023-03-29T00:48:22.624Z,67.4671
2023-03-29T00:50:27.478Z,66.9420
2023-03-29T00:51:29.967Z,68.1373
2023-03-29T00:52:32.437Z,68.4737
2023-03-29T00:53:34.914Z,69.5987
2023-03-29T00:54:37.440Z,69.8560
2023-03-29T00:55:39.948Z,68.3581
2023-03-29T00:56:42.590Z,67.7761
2023-03-29T00:58:47.398Z,65.8856
2023-03-29T00:59:49.848Z,65.6506
2023-03-29T01:00:52.435Z,67.7687
2023-03-29T01:01:55.232Z,67.8642
2023-03-29T01:02:58.264Z,64.5963
2023-03-29T01:05:03.192Z,64.5211
2023-03-29T01:06:05.752Z,64.1629
2023-03-29T01:08:10.617Z,65.3553
2023-03-29T01:09:13.153Z,65.9152
2023-03-29T01:10:15.685Z,64.9743
2023-03-29T01:11:18.188Z,65.2467
2023-03-29T01:13:23.168Z,65.3690
2023-03-29T01:14:25.670Z,66.7607
2023-03-29T01:15:28.258Z,66.4833
2023-03-29T01:16:30.812Z,66.5182
2023-03-29T01:19:38.202Z,66.7920
2023-03-29T01:21:43.128Z,64.9349
2023-03-29T01:22:45.723Z,65.1181
2023-03-29T01:24:50.587Z,64.2794
2023-03-29T01:25:53.130Z,64.8014
2023-03-29T01:26:55.636Z,65.3019
2023-03-29T01:27:58.145Z,65.2742
2023-03-29T01:29:00.690Z,65.1186
2023-03-29T01:30:03.172Z,65.6028
2023-03-29T01:31:05.734Z,65.8492
2023-03-29T01:33:10.624Z,64.0822
2023-03-29T01:34:13.189Z,63.4383
2023-03-29T01:35:15.668Z,64.0761
2023-03-29T01:36:18.274Z,65.2105
2023-03-29T01:37:20.838Z,65.5579
2023-03-29T01:38:23.404Z,64.9075
2023-03-29T01:39:25.871Z,65.9752
2023-03-29T01:41:30.752Z,64.2839
2023-03-29T01:42:33.296Z,64.5078
2023-03-29T01:43:35.900Z,65.7812
2023-03-29T01:44:38.435Z,66.0540
2023-03-29T01:45:40.892Z,65.7895
2023-03-29T01:46:43.439Z,66.0297
2023-03-29T01:47:46.060Z,65.8343
2023-03-29T01:49:50.939Z,65.8438
2023-03-29T01:50:53.547Z,66.5347
2023-03-29T01:51:56.101Z,67.2166
2023-03-29T01:52:58.640Z,67.5423
2023-03-29T01:55:03.490Z,68.3381
2023-03-29T01:56:05.959Z,67.8590
2023-03-29T01:57:08.498Z,66.8248
2023-03-29T01:58:10.953Z,67.7911
2023-03-29T01:59:13.508Z,67.3860
2023-03-29T02:00:16.066Z,68.0477
2023-03-29T02:01:18.600Z,66.7129
2023-03-29T02:02:21.169Z,67.1983
2023-03-29T02:03:23.794Z,67.7038
2023-03-29T02:04:26.406Z,68.7317
2023-03-29T02:06:31.272Z,67.2333
2023-03-29T02:08:36.087Z,67.7026
2023-03-29T02:09:38.635Z,66.3611
2023-03-29T02:10:41.113Z,66.5251
2023-03-29T02:11:43.578Z,67.4964
2023-03-29T02:12:46.166Z,69.1042
2023-03-29T02:13:48.713Z,67.0784
2023-03-29T02:14:51.200Z,66.8184
2023-03-29T02:15:53.748Z,67.2724
2023-03-29T02:17:58.619Z,68.6630
2023-03-29T02:19:01.392Z,67.9843
2023-03-29T02:20:03.846Z,67.4550
2023-03-29T02:21:06.402Z,69.4169
2023-03-29T02:22:08.891Z,69.7122
2023-03-29T02:23:11.433Z,70.7675
2023-03-29T02:25:16.278Z,69.1458
2023-03-29T02:26:18.790Z,67.6067
2023-03-29T02:27:21.332Z,67.1021
2023-03-29T02:28:23.790Z,67.6875
2023-03-29T02:29:26.336Z,68.5289
2023-03-29T02:31:31.269Z,68.3604
2023-03-29T02:33:36.089Z,68.0648
2023-03-29T02:34:38.672Z,67.7614
2023-03-29T02:36:43.552Z,67.5198
2023-03-29T02:37:46.061Z,69.2714
2023-03-29T02:38:48.563Z,68.9866
2023-03-29T02:39:51.085Z,67.9539
2023-03-29T02:41:55.934Z,66.5382
2023-03-29T02:42:58.416Z,66.6341
2023-03-29T02:44:00.990Z,69.7363
2023-03-29T02:45:03.538Z,72.2628
2023-03-29T02:47:08.390Z,69.3030
2023-03-29T02:49:13.266Z,68.7900
2023-03-29T02:50:15.796Z,70.1211
2023-03-29T02:51:20.016Z,68.1965
2023-03-29T02:52:18.413Z,69.1622
2023-03-29T02:53:21.067Z,68.1236
2023-03-29T02:54:23.565Z,67.7756
2023-03-29T02:55:26.163Z,66.4807
2023-03-29T02:56:28.680Z,69.6575
2023-03-29T02:57:31.198Z,70.1577
2023-03-29T02:58:33.753Z,70.6080
2023-03-29T02:59:36.255Z,70.9562
2023-03-29T03:00:38.836Z,71.4284
2023-03-29T03:01:41.331Z,70.9910
2023-03-29T03:03:46.374Z,71.8277
2023-03-29T03:04:48.966Z,70.1200
2023-03-29T03:06:53.851Z,68.7470
2023-03-29T03:07:56.387Z,68.8379
2023-03-29T03:08:58.905Z,67.5716
2023-03-29T03:10:01.469Z,67.6737
2023-03-29T03:11:04.226Z,68.9661
2023-03-29T03:13:09.520Z,68.5200
2023-03-29T03:14:12.022Z,67.8859
2023-03-29T03:15:14.573Z,68.4418
2023-03-29T03:16:17.070Z,69.1830
2023-03-29T03:18:21.930Z,70.7413
2023-03-29T03:19:24.468Z,68.9916
2023-03-29T03:20:27.076Z,69.4570
2023-03-29T03:21:29.596Z,68.7892
2023-03-29T03:23:34.610Z,69.5423
2023-03-29T03:24:37.114Z,70.1450
2023-03-29T03:25:39.653Z,70.1734
2023-03-29T03:26:42.138Z,69.9753
2023-03-29T03:31:54.349Z,64.1290
2023-03-29T03:32:57.156Z,64.5366
2023-03-29T03:33:59.684Z,67.4617
2023-03-29T03:35:02.237Z,67.3348
2023-03-29T03:36:04.830Z,67.3421
2023-03-29T03:37:07.336Z,67.3253
2023-03-29T03:38:09.894Z,69.6251
2023-03-29T03:39:12.394Z,70.1750
2023-03-29T03:40:14.949Z,68.2609
2023-03-29T03:41:17.415Z,68.3221
2023-03-29T03:42:19.957Z,67.2272
2023-03-29T03:43:22.610Z,68.6562
2023-03-29T03:45:27.626Z,68.3664
2023-03-29T03:47:32.661Z,68.2167
2023-03-29T03:48:35.143Z,69.1419
2023-03-29T03:49:37.641Z,70.9262
2023-03-29T03:50:40.115Z,71.3687
2023-03-29T03:51:42.642Z,70.6526
2023-03-29T03:52:45.219Z,71.0002
2023-03-29T03:53:47.706Z,70.7654
2023-03-29T03:54:50.245Z,71.1208
2023-03-29T03:55:52.852Z,72.2823
2023-03-29T03:56:55.401Z,71.0517
2023-03-29T03:57:57.959Z,70.5950
2023-03-29T03:59:00.550Z,71.0606
2023-03-29T04:00:03.141Z,72.2737
2023-03-29T04:01:05.584Z,69.7604
2023-03-29T04:02:08.138Z,68.3986
2023-03-29T04:04:13.047Z,68.6191
2023-03-29T04:05:15.493Z,70.1439
2023-03-29T04:06:18.086Z,71.3449
2023-03-29T04:07:20.592Z,69.2956
2023-03-29T04:08:23.171Z,67.9123
2023-03-29T04:10:27.982Z,71.4326
2023-03-29T04:11:30.481Z,72.2274
2023-03-29T04:12:33.033Z,71.3145
2023-03-29T04:13:35.576Z,66.4558
2023-03-29T04:15:40.398Z,68.1035
2023-03-29T04:16:42.964Z,68.7444
2023-03-29T04:18:47.829Z,66.2359
2023-03-29T04:19:50.376Z,68.1361
2023-03-29T04:20:52.947Z,67.7131
2023-03-29T04:21:55.390Z,68.2356
2023-03-29T04:22:57.887Z,68.1358
2023-03-29T04:25:02.715Z,66.9056
2023-03-29T04:26:05.266Z,66.6183
2023-03-29T04:28:10.209Z,64.3906
2023-03-29T04:29:12.724Z,63.7073
2023-03-29T04:30:15.229Z,63.9511
2023-03-29T04:31:17.782Z,64.1672
2023-03-29T04:32:20.277Z,65.9450
2023-03-29T04:33:22.776Z,65.7626
2023-03-29T04:34:25.264Z,65.8969
2023-03-29T04:35:27.739Z,65.2612
2023-03-29T04:37:32.646Z,67.0887
2023-03-29T04:38:35.153Z,68.0655
2023-03-29T04:39:37.647Z,68.0428
2023-03-29T04:40:40.141Z,66.9031
2023-03-29T04:42:44.976Z,67.6437
2023-03-29T04:43:47.509Z,66.1711
2023-03-29T04:44:50.080Z,65.7650
2023-03-29T04:45:52.656Z,66.3951
2023-03-29T04:46:55.358Z,64.7639
2023-03-29T04:47:57.912Z,66.6061
2023-03-29T04:49:00.479Z,67.7038
2023-03-29T04:50:02.964Z,68.2029
2023-03-29T04:51:05.482Z,67.2368
2023-03-29T04:52:08.014Z,64.6766
2023-03-29T04:53:10.528Z,61.7618
2023-03-29T04:54:13.088Z,61.0921
2023-03-29T04:55:15.649Z,59.7858
2023-03-29T04:56:18.091Z,59.2077
2023-03-29T04:57:20.685Z,57.9866
2023-03-29T04:59:25.508Z,59.3132
2023-03-29T05:00:28.064Z,58.5015
2023-03-29T05:01:30.587Z,58.0569
2023-03-29T05:02:33.146Z,58.6613
2023-03-29T05:03:35.766Z,59.3846
2023-03-29T05:05:40.584Z,59.1276
2023-03-29T05:06:43.170Z,58.9691
2023-03-29T05:07:45.717Z,59.2858
2023-03-29T05:08:48.172Z,59.7378
2023-03-29T05:09:50.684Z,59.4999
2023-03-29T05:10:53.173Z,58.3449
2023-03-29T05:11:55.727Z,57.6398
2023-03-29T05:14:00.509Z,57.4376
2023-03-29T05:18:10.266Z,59.3461
2023-03-29T05:19:12.810Z,57.8061
2023-03-29T05:20:15.458Z,58.0951
2023-03-29T05:22:20.300Z,59.1429
2023-03-29T05:24:25.073Z,59.9371
2023-03-29T05:25:27.865Z,59.6684
2023-03-29T05:26:30.363Z,60.3670
2023-03-29T05:27:33.021Z,60.7796
2023-03-29T05:28:35.576Z,61.1327
2023-03-29T05:29:38.112Z,60.5455
2023-03-29T05:30:40.599Z,60.3635
2023-03-29T05:31:43.173Z,59.5435
2023-03-29T05:32:45.739Z,58.6734
2023-03-29T05:33:48.188Z,59.0949
2023-03-29T05:35:53.114Z,58.4656
2023-03-29T05:36:55.571Z,58.2352
2023-03-29T05:37:58.092Z,62.0500
2023-03-29T05:40:05.825Z,62.7330
2023-03-29T05:41:04.589Z,60.5482
2023-03-29T05:43:09.596Z,59.6422
2023-03-29T05:44:12.139Z,59.0834
2023-03-29T05:45:14.677Z,59.1785
2023-03-29T05:46:17.234Z,58.9473
2023-03-29T05:47:19.944Z,60.9759
2023-03-29T05:49:24.812Z,61.1232
2023-03-29T05:50:27.330Z,61.0704
2023-03-29T05:52:32.204Z,60.1290
2023-03-29T05:53:34.684Z,60.8790
2023-03-29T05:55:39.466Z,62.4327
2023-03-29T05:56:41.995Z,62.4461
2023-03-29T05:58:46.845Z,61.4253
2023-03-29T05:59:49.283Z,62.5375
2023-03-29T06:00:51.803Z,61.7074
2023-03-29T06:01:54.383Z,62.5102
2023-03-29T06:03:03.654Z,62.0920
2023-03-29T06:05:03.156Z,62.8563
2023-03-29T06:06:05.743Z,62.6510
2023-03-29T06:07:08.192Z,62.6532
2023-03-29T06:08:10.742Z,63.6657
2023-03-29T06:09:13.263Z,63.6943
2023-03-29T06:10:15.757Z,64.3284
2023-03-29T06:11:18.302Z,61.8480
2023-03-29T06:20:39.535Z,60.6572
2023-03-29T06:22:44.328Z,59.8171
2023-03-29T06:23:46.765Z,58.9290
2023-03-29T06:24:49.410Z,59.5812
2023-03-29T06:25:51.871Z,59.5650
2023-03-29T06:27:56.795Z,59.7822
2023-03-29T06:28:59.247Z,59.4757
2023-03-29T06:30:01.744Z,59.9468
2023-03-29T06:31:04.468Z,60.2052
2023-03-29T06:32:07.596Z,60.5577
2023-03-29T06:34:12.371Z,61.9016
2023-03-29T06:35:14.855Z,59.6764
2023-03-29T06:37:19.712Z,60.3765
2023-03-29T06:38:22.148Z,59.4546
2023-03-29T06:39:24.621Z,58.7270
2023-03-29T06:40:27.078Z,59.8222
2023-03-29T06:41:29.542Z,59.6332
2023-03-29T06:42:31.961Z,58.8575
2023-03-29T06:44:36.661Z,58.9969
2023-03-29T06:46:41.516Z,57.4166
2023-03-29T06:47:43.986Z,58.4658
2023-03-29T06:48:46.427Z,58.0125
2023-03-29T06:49:48.869Z,58.1465
2023-03-29T06:50:51.369Z,58.1708
2023-03-29T06:52:56.153Z,57.0146
2023-03-29T06:53:58.586Z,58.8414
2023-03-29T06:55:01.110Z,59.6398
2023-03-29T06:56:03.559Z,58.1981
2023-03-29T06:57:06.058Z,59.2611
2023-03-29T06:58:08.514Z,58.8615
2023-03-29T06:59:10.969Z,58.3061
2023-03-29T07:00:13.444Z,57.5505
2023-03-29T07:01:16.011Z,57.0293
2023-03-29T07:02:18.486Z,56.8803
2023-03-29T07:04:23.270Z,56.8285
2023-03-29T07:05:25.726Z,56.9782
2023-03-29T07:06:28.164Z,57.7558
2023-03-29T07:07:30.617Z,57.8424
2023-03-29T07:08:33.050Z,59.0696
2023-03-29T07:09:35.559Z,59.8666
2023-03-29T07:10:38.031Z,62.6820
2023-03-29T07:12:42.770Z,68.3792
2023-03-29T07:13:45.193Z,66.6402
2023-03-29T07:14:47.647Z,66.5106
2023-03-29T07:15:50.105Z,68.7103
2023-03-29T07:17:54.895Z,69.7139
2023-03-29T07:18:57.338Z,70.3764
2023-03-29T07:19:58.420Z,69.8905
2023-03-29T07:22:03.161Z,69.8915
2023-03-29T07:23:05.571Z,70.4315
2023-03-29T07:24:08.063Z,71.1352
2023-03-29T07:25:10.540Z,69.2182
2023-03-29T07:26:13.026Z,69.5080
2023-03-29T07:27:15.413Z,71.1140
2023-03-29T07:28:17.879Z,69.7001
2023-03-29T07:29:20.359Z,69.9524
2023-03-29T07:30:22.821Z,68.8872
2023-03-29T07:31:25.278Z,69.8605
2023-03-29T07:32:27.825Z,69.4853
2023-03-29T07:34:32.656Z,69.0999
2023-03-29T07:35:35.193Z,69.9816
2023-03-29T07:37:39.922Z,69.8081
2023-03-29T07:38:42.330Z,70.5330
2023-03-29T07:39:44.773Z,69.9417
2023-03-29T07:40:47.233Z,70.1502
2023-03-29T07:42:52.635Z,69.6345
2023-03-29T07:43:55.039Z,65.8449
2023-03-29T07:44:57.477Z,66.3340
2023-03-29T07:45:59.950Z,69.5563
2023-03-29T07:47:02.352Z,68.7888
2023-03-29T07:48:04.932Z,69.7950
2023-03-29T07:49:07.352Z,66.8480
2023-03-29T07:50:09.795Z,63.1485
2023-03-29T07:51:12.206Z,67.0178
2023-03-29T07:52:14.627Z,68.3552
2023-03-29T07:53:17.055Z,67.1526
2023-03-29T07:54:19.538Z,68.0841
2023-03-29T07:55:22.035Z,67.2377
2023-03-29T07:56:24.458Z,65.2476
2023-03-29T07:57:27.219Z,64.3323
2023-03-29T07:59:32.063Z,63.6201
2023-03-29T08:00:34.555Z,63.1082
2023-03-29T08:02:39.170Z,63.6131
2023-03-29T08:03:41.654Z,64.8760
2023-03-29T08:05:46.369Z,65.3288
2023-03-29T08:06:48.774Z,65.1809
2023-03-29T08:07:51.236Z,66.0958
2023-03-29T08:08:53.633Z,66.1592
2023-03-29T08:09:56.031Z,64.1655
2023-03-29T08:10:58.476Z,65.3919
2023-03-29T08:12:00.914Z,64.0805
2023-03-29T08:13:03.330Z,62.1865
2023-03-29T08:14:05.774Z,64.3775
2023-03-29T08:16:10.442Z,66.5971
2023-03-29T08:17:12.941Z,65.4296
2023-03-29T08:19:17.711Z,67.0711
2023-03-29T08:20:20.173Z,67.5964
2023-03-29T08:22:24.843Z,66.7787
2023-03-29T08:24:29.545Z,67.5540
2023-03-29T08:25:32.044Z,68.4136
2023-03-29T08:26:34.431Z,67.2066
2023-03-29T08:27:36.902Z,67.7420
2023-03-29T08:29:41.824Z,65.9688
2023-03-29T08:31:46.526Z,67.3007
2023-03-29T08:32:51.078Z,65.6637
2023-03-29T08:33:51.082Z,64.1989
2023-03-29T08:35:55.825Z,65.5889
2023-03-29T08:38:00.507Z,65.4041
2023-03-29T08:39:02.979Z,64.7251
2023-03-29T08:40:05.372Z,63.7798
2023-03-29T08:41:07.839Z,63.5997
2023-03-29T08:42:10.218Z,63.6004
2023-03-29T08:43:12.676Z,64.5692
2023-03-29T08:44:15.056Z,63.2066
2023-03-29T08:46:19.802Z,63.0602
2023-03-29T08:47:22.247Z,62.4880
2023-03-29T08:49:26.931Z,62.7187
2023-03-29T08:51:31.524Z,60.6481
2023-03-29T08:52:33.993Z,62.6378
2023-03-29T08:53:36.391Z,64.1167
2023-03-29T08:54:38.900Z,61.4049
2023-03-29T08:55:41.386Z,60.5220
2023-03-29T08:57:46.019Z,60.0958
2023-03-29T08:58:48.384Z,60.3285
2023-03-29T08:59:50.810Z,61.6228
2023-03-29T09:00:53.233Z,59.7763
2023-03-29T09:02:58.313Z,59.3795
2023-03-29T09:04:00.902Z,59.6881
2023-03-29T09:06:05.568Z,58.2571
2023-03-29T09:08:10.351Z,58.4398
2023-03-29T09:09:12.776Z,58.6664
2023-03-29T09:11:17.529Z,57.7781
2023-03-29T09:12:19.989Z,57.7508
2023-03-29T09:13:22.387Z,58.5447
2023-03-29T09:14:24.835Z,59.1890
2023-03-29T09:15:27.260Z,58.7247
2023-03-29T09:16:29.763Z,59.1502
2023-03-29T09:17:32.218Z,59.9516
2023-03-29T09:18:34.688Z,60.7695
2023-03-29T09:19:37.072Z,59.8227
2023-03-29T09:20:39.537Z,60.2576
2023-03-29T09:21:41.986Z,61.9477
2023-03-29T09:22:44.376Z,62.0370
2023-03-29T09:24:49.110Z,60.4981
2023-03-29T09:25:54.202Z,60.4080
2023-03-29T09:26:52.221Z,61.9816
2023-03-29T09:27:54.675Z,60.7824
2023-03-29T09:28:57.173Z,61.6067
2023-03-29T09:29:59.560Z,60.3807
2023-03-29T09:31:02.270Z,59.6641
2023-03-29T09:32:04.868Z,59.6584
2023-03-29T09:33:07.363Z,60.4673
2023-03-29T09:34:09.781Z,60.3909
2023-03-29T09:36:14.604Z,60.9553
2023-03-29T09:37:17.004Z,61.6252
2023-03-29T09:38:19.516Z,61.8280
2023-03-29T09:39:21.942Z,61.1101
2023-03-29T09:41:26.646Z,63.0981
2023-03-29T09:42:29.073Z,62.1106
2023-03-29T09:43:31.536Z,62.3001
2023-03-29T09:44:33.936Z,60.4499
2023-03-29T09:46:38.651Z,61.8524
2023-03-29T09:47:41.141Z,62.9958
2023-03-29T09:48:43.597Z,59.6122
2023-03-29T09:49:46.102Z,61.0070
2023-03-29T09:50:48.530Z,60.0695
2023-03-29T09:52:53.268Z,59.8193
2023-03-29T09:53:55.752Z,60.7679
2023-03-29T09:56:00.533Z,60.2485
2023-03-29T09:57:03.058Z,59.9278
2023-03-29T09:58:05.468Z,60.8428
2023-03-29T09:59:07.918Z,61.3684
2023-03-29T10:00:10.352Z,62.4413
2023-03-29T10:01:12.856Z,62.0628
2023-03-29T10:03:17.504Z,59.8586
2023-03-29T10:04:19.981Z,61.2231
2023-03-29T10:06:24.638Z,60.8799
2023-03-29T10:07:27.082Z,60.5783
2023-03-29T10:08:29.483Z,60.1235
2023-03-29T10:09:32.074Z,59.8945
2023-03-29T10:10:34.481Z,59.5490
2023-03-29T10:11:37.022Z,59.6315
2023-03-29T10:12:39.454Z,59.6371
2023-03-29T10:13:41.834Z,59.2753
2023-03-29T10:15:46.494Z,58.7714
2023-03-29T10:16:49.013Z,58.7524
2023-03-29T10:18:53.638Z,60.4994
2023-03-29T10:19:56.061Z,59.8363
2023-03-29T10:20:58.461Z,58.3319
2023-03-29T10:22:00.867Z,58.9123
2023-03-29T10:23:03.307Z,59.2338
2023-03-29T10:24:05.681Z,57.1987
2023-03-29T10:25:08.087Z,58.9727
2023-03-29T10:27:12.740Z,59.5212
2023-03-29T10:28:15.119Z,59.4689
2023-03-29T10:29:17.554Z,58.7313
2023-03-29T10:30:19.945Z,56.4869
2023-03-29T10:31:22.378Z,56.9696
2023-03-29T10:32:24.857Z,56.7022
2023-03-29T10:33:27.197Z,57.9618
2023-03-29T10:34:29.670Z,57.5650
2023-03-29T10:35:32.112Z,56.0965
2023-03-29T10:36:34.510Z,56.9941
2023-03-29T10:37:36.864Z,57.3400
2023-03-29T10:39:41.486Z,53.8170
2023-03-29T10:40:43.801Z,54.5436
2023-03-29T10:41:46.187Z,57.6199
2023-03-29T10:42:48.527Z,55.5596
2023-03-29T10:43:51.149Z,54.8881
2023-03-29T10:44:54.337Z,54.8052
2023-03-29T16:02:32.911Z,48.7904
2023-03-29T16:03:33.139Z,48.4143
2023-03-29T16:04:33.414Z,47.9937
2023-03-29T16:05:33.618Z,48.1976
2023-03-29T16:06:33.795Z,48.9397
2023-03-29T16:07:34.047Z,51.7063
2023-03-29T16:08:34.275Z,52.1060
2023-03-29T16:09:34.445Z,50.5910
2023-03-29T16:10:34.653Z,51.5137
2023-03-29T16:11:34.854Z,51.3108
2023-03-29T16:12:35.045Z,51.8989
2023-03-29T16:13:35.271Z,54.9585
2023-03-29T16:14:35.404Z,58.3606
2023-03-29T16:15:35.650Z,57.2606
2023-03-29T16:16:36.987Z,57.8573
2023-03-29T16:17:37.248Z,60.3677
2023-03-29T16:18:37.463Z,61.5996
2023-03-29T16:19:37.749Z,59.8843
2023-03-29T16:21:37.987Z,60.8919
2023-03-29T16:22:38.239Z,60.5585
2023-03-29T16:23:38.442Z,60.9034
2023-03-29T16:24:38.638Z,61.5321
2023-03-29T16:25:38.852Z,60.7849
2023-03-29T16:26:39.124Z,62.2755
2023-03-29T16:27:39.288Z,60.1243
2023-03-29T16:28:39.498Z,60.7553
2023-03-29T16:29:39.700Z,62.3644
2023-03-29T16:30:39.906Z,61.6823
2023-03-29T16:31:40.331Z,61.3681
2023-03-29T16:32:40.750Z,61.9872
2023-03-29T16:33:41.003Z,61.9953
2023-03-29T16:34:41.514Z,60.7316
2023-03-29T16:35:42.016Z,60.6956
2023-03-29T16:36:42.170Z,62.6309
2023-03-29T16:37:42.391Z,62.2979
2023-03-29T16:38:42.585Z,63.0292
2023-03-29T16:39:42.825Z,64.1065
2023-03-29T16:40:43.005Z,64.7492
2023-03-29T16:41:43.198Z,63.9773
2023-03-29T16:42:43.419Z,64.5747
2023-03-29T16:43:43.615Z,64.8718
2023-03-29T16:44:43.847Z,65.4453
2023-03-29T16:45:44.026Z,66.3754
2023-03-29T16:46:44.234Z,67.1413
2023-03-29T16:47:44.567Z,67.5154
2023-03-29T16:48:44.857Z,66.5935
2023-03-29T16:49:45.953Z,68.2531
2023-03-29T16:50:46.228Z,67.4650
2023-03-29T16:51:46.451Z,66.2054
2023-03-29T16:52:46.702Z,67.4448
2023-03-29T16:53:46.915Z,67.5406
2023-03-29T16:54:47.133Z,68.0179
2023-03-29T16:55:47.352Z,67.8969
2023-03-29T16:56:47.593Z,67.7533
2023-03-29T16:57:47.757Z,69.0361
2023-03-29T16:58:48.022Z,67.5442
2023-03-29T16:59:48.288Z,67.3741
2023-03-29T17:00:48.697Z,69.6677
2023-03-29T17:01:48.926Z,68.9984
2023-03-29T17:02:49.229Z,66.3153
2023-03-29T17:03:49.532Z,67.5713
2023-03-29T17:04:49.931Z,69.0805
2023-03-29T17:05:50.258Z,68.2092
2023-03-29T17:06:50.694Z,67.4137
2023-03-29T17:07:50.899Z,66.6717
2023-03-29T17:08:51.136Z,67.7951
2023-03-29T17:09:51.371Z,69.7434
2023-03-29T17:10:51.596Z,67.5262
2023-03-29T17:11:52.819Z,69.1824
2023-03-29T17:12:53.164Z,68.4097
2023-03-29T17:13:53.499Z,69.4547
2023-03-29T17:14:53.825Z,68.7146
2023-03-29T17:15:54.109Z,67.8588
2023-03-29T17:16:54.339Z,67.7443
2023-03-29T17:17:54.591Z,68.4236
2023-03-29T17:18:54.837Z,69.9950
2023-03-29T17:19:55.192Z,68.2023
2023-03-29T17:20:55.460Z,67.2048
2023-03-29T17:21:55.667Z,67.8375
2023-03-29T17:22:55.973Z,67.8239
2023-03-29T17:23:56.240Z,68.1197
2023-03-29T17:24:56.573Z,68.2276
2023-03-29T17:25:56.778Z,68.0611
2023-03-29T17:26:57.048Z,69.3865
2023-03-29T17:27:57.293Z,68.9787
2023-03-29T17:28:57.503Z,67.3609
2023-03-29T17:30:57.889Z,67.7117
2023-03-29T17:31:58.082Z,68.5782
2023-03-29T17:32:58.299Z,68.0687
2023-03-29T17:33:58.565Z,67.6346
2023-03-29T17:34:58.792Z,68.4977
2023-03-29T17:35:59.288Z,69.2656
2023-03-29T17:36:59.743Z,68.7291
2023-03-29T17:37:59.957Z,69.1871
2023-03-29T17:39:02.364Z,67.6581
2023-03-29T17:40:00.616Z,68.4623
2023-03-29T17:41:00.930Z,69.6478
2023-03-29T17:42:01.168Z,69.6413
2023-03-29T17:43:01.592Z,69.3887
2023-03-29T17:44:01.964Z,71.0299
2023-03-29T17:45:02.205Z,70.2450
2023-03-29T17:46:02.611Z,70.4811
2023-03-29T17:47:03.361Z,71.5772
2023-03-29T17:48:06.246Z,72.0719
2023-03-29T17:49:04.656Z,71.4513
2023-03-29T17:50:05.272Z,71.8577
2023-03-29T17:51:05.625Z,71.8798
2023-03-29T17:52:05.834Z,71.0434
2023-03-29T17:53:06.179Z,70.4383
2023-03-29T17:54:06.480Z,70.8510
2023-03-29T17:55:06.664Z,70.0190
2023-03-29T17:56:06.942Z,70.2630
2023-03-29T17:57:07.171Z,70.9632
2023-03-29T17:58:07.406Z,70.7951
2023-03-29T17:59:07.642Z,72.0182
2023-03-29T18:00:07.938Z,72.9665
2023-03-29T18:01:08.519Z,72.2398
2023-03-29T18:02:08.841Z,71.5016
2023-03-29T18:03:09.071Z,71.7350
2023-03-29T18:04:09.476Z,71.9222
2023-03-29T18:05:09.700Z,71.7462
2023-03-29T18:06:09.916Z,71.9172
2023-03-29T18:07:10.093Z,72.1368
2023-03-29T18:08:10.328Z,71.8092
2023-03-29T18:09:10.520Z,71.6045
2023-03-29T18:10:10.951Z,71.3512
2023-03-29T18:11:11.231Z,71.2076
2023-03-29T18:12:11.481Z,71.7048
2023-03-29T18:13:11.832Z,71.6002
2023-03-29T18:14:12.053Z,71.8450
2023-03-29T18:15:12.251Z,72.7108
2023-03-29T18:16:12.487Z,71.3174
2023-03-29T18:17:12.734Z,70.5780
2023-03-29T18:18:12.910Z,70.8824
2023-03-29T18:19:13.182Z,71.4938
2023-03-29T18:20:13.428Z,70.7571
2023-03-29T18:21:13.715Z,70.5738
2023-03-29T18:22:14.555Z,70.3789
2023-03-29T18:23:15.074Z,70.1624
2023-03-29T18:24:15.478Z,70.6365
2023-03-29T18:25:15.795Z,70.8954
2023-03-29T18:26:16.272Z,71.0978
2023-03-29T18:27:16.536Z,72.1745
2023-03-29T18:28:16.729Z,71.8115
2023-03-29T18:29:17.014Z,72.7947
2023-03-29T18:30:17.292Z,72.4962
2023-03-29T18:31:17.739Z,72.4234
2023-03-29T18:32:18.047Z,71.1423
2023-03-29T18:33:18.328Z,70.4051
2023-03-29T18:34:18.541Z,70.9818
2023-03-29T18:35:18.818Z,71.5318
2023-03-29T18:36:19.074Z,70.6740
2023-03-29T18:37:19.643Z,71.6683
2023-03-29T18:38:19.933Z,72.2998
2023-03-29T18:39:20.171Z,72.3102
2023-03-29T18:40:20.373Z,71.5220
2023-03-29T18:41:20.666Z,71.5992
2023-03-29T18:43:21.011Z,71.0528
2023-03-29T18:44:21.224Z,71.3077
2023-03-29T18:45:21.650Z,70.4829
2023-03-29T18:46:22.110Z,70.9661
2023-03-29T18:47:22.462Z,73.3133
2023-03-29T18:48:22.859Z,76.6672
2023-03-29T18:49:23.072Z,74.4159
2023-03-29T18:50:23.297Z,73.7531
2023-03-29T18:51:23.493Z,77.6885
2023-03-29T18:53:23.794Z,79.2467
2023-03-29T18:54:24.114Z,77.6646
2023-03-29T18:55:24.364Z,78.6302
2023-03-29T18:56:24.595Z,79.9781
2023-03-29T18:57:24.962Z,81.3628
2023-03-29T18:58:25.193Z,75.2702
2023-03-29T18:59:25.458Z,72.9431
2023-03-29T19:00:25.723Z,75.1085
2023-03-29T19:01:25.972Z,75.7963
2023-03-29T19:02:26.263Z,73.5404
2023-03-29T19:03:26.607Z,74.6597
2023-03-29T19:04:27.025Z,74.5352
2023-03-29T19:05:27.340Z,74.4452
2023-03-29T19:06:27.561Z,73.4864
2023-03-29T19:07:27.874Z,74.3393
2023-03-29T19:08:28.229Z,73.8836
2023-03-29T19:09:28.507Z,74.7571
2023-03-29T19:10:28.813Z,74.5724
2023-03-29T19:11:29.176Z,75.3872
2023-03-29T19:12:29.487Z,75.5637
2023-03-29T19:13:29.764Z,77.1242
2023-03-29T19:14:30.078Z,80.2169
2023-03-29T19:15:30.437Z,78.3276
2023-03-29T19:16:30.755Z,80.2951
2023-03-29T19:17:31.074Z,83.1351
2023-03-29T19:18:31.390Z,85.0336
2023-03-29T19:19:31.663Z,84.8120
2023-03-29T19:20:31.922Z,84.5821
2023-03-29T19:21:32.307Z,83.5976
2023-03-29T19:23:32.748Z,81.8166
2023-03-29T19:24:32.977Z,82.3565
2023-03-29T19:25:33.265Z,81.9109
2023-03-29T19:26:33.614Z,82.0051
2023-03-29T19:27:33.885Z,80.6388
2023-03-29T19:28:34.148Z,81.2864
2023-03-29T19:29:34.410Z,79.5431
2023-03-29T19:30:34.697Z,78.9100
2023-03-29T19:31:35.078Z,75.6172
2023-03-29T19:32:35.340Z,75.7334
2023-03-29T19:33:35.612Z,75.5400
2023-03-29T19:34:35.915Z,72.0942
2023-03-29T19:35:36.343Z,71.4950
2023-03-29T19:36:36.589Z,75.0604
2023-03-29T19:37:36.921Z,72.1757
2023-03-29T19:38:37.162Z,72.2898
2023-03-29T19:39:37.459Z,74.4364
2023-03-29T19:40:37.774Z,73.9942
2023-03-29T19:41:39.441Z,73.5550
2023-03-29T19:42:38.526Z,74.2295
2023-03-29T19:43:38.866Z,75.1755
2023-03-29T19:44:39.158Z,74.8669
2023-03-29T19:45:39.432Z,75.9331
2023-03-29T19:46:39.737Z,76.1425
2023-03-29T19:47:40.114Z,74.6203
2023-03-29T19:48:40.454Z,76.1553
2023-03-29T19:49:40.799Z,75.5853
2023-03-29T19:50:41.195Z,75.7250
2023-03-29T19:51:41.520Z,76.3914
2023-03-29T19:52:41.754Z,76.6581
2023-03-29T19:53:42.056Z,76.3512
2023-03-29T19:54:42.357Z,75.5976